Terminal Aerodrome Forecast
Issued by NWS Paducah, KY

Home | Current Version | Previous Version | Text Only | Print | Product List | Glossary Off
Versions: 1 2 3 4 5 6 7 8 9 10 11 12 13 14 15 16

758
FTUS43 KPAH 221120
TAFPAH
TAF
KPAH 221120Z 2212/2312 00000KT 3SM BR SCT003
      TEMPO 2212/2213 1SM BR VV003
     FM221400 VRB04KT P6SM FEW035
     FM221700 09005KT P6SM SCT045
     FM230000 VRB02KT P6SM SCT250
     FM230600 00000KT 4SM BR SCT250
      TEMPO 2308/2312 2SM BR=

USA.gov is the U.S. government's official web portal to all federal, state and local government web resources and services.